sensor_id;sensor_type;location;lat;lon;timestamp;P1;durP1;ratioP1;P2;durP2;ratioP2
44774;SDS011;31340;51.402;0.016;2023-07-20T00:02:14;4.80;;;2.50;;
44774;SDS011;31340;51.402;0.016;2023-07-20T00:04:42;4.18;;;2.40;;
44774;SDS011;31340;51.402;0.016;2023-07-20T00:07:09;6.43;;;2.83;;
44774;SDS011;31340;51.402;0.016;2023-07-20T00:09:37;3.65;;;2.40;;
44774;SDS011;31340;51.402;0.016;2023-07-20T00:12:05;4.28;;;2.10;;
44774;SDS011;31340;51.402;0.016;2023-07-20T00:14:34;2.83;;;2.10;;
44774;SDS011;31340;51.402;0.016;2023-07-20T00:17:02;3.67;;;2.00;;
44774;SDS011;31340;51.402;0.016;2023-07-20T00:19:30;2.72;;;1.92;;
44774;SDS011;31340;51.402;0.016;2023-07-20T00:21:59;1.55;;;1.40;;
44774;SDS011;31340;51.402;0.016;2023-07-20T00:24:27;3.10;;;1.60;;
44774;SDS011;31340;51.402;0.016;2023-07-20T00:26:55;3.55;;;1.55;;
44774;SDS011;31340;51.402;0.016;2023-07-20T00:29:23;3.00;;;1.65;;
44774;SDS011;31340;51.402;0.016;2023-07-20T00:31:50;4.45;;;1.83;;
44774;SDS011;31340;51.402;0.016;2023-07-20T00:34:18;4.32;;;1.80;;
44774;SDS011;31340;51.402;0.016;2023-07-20T00:36:46;3.60;;;2.05;;
44774;SDS011;31340;51.402;0.016;2023-07-20T00:39:16;5.50;;;1.92;;
44774;SDS011;31340;51.402;0.016;2023-07-20T00:41:44;3.88;;;2.10;;
44774;SDS011;31340;51.402;0.016;2023-07-20T00:44:12;3.85;;;1.95;;
44774;SDS011;31340;51.402;0.016;2023-07-20T00:46:40;5.55;;;1.85;;
44774;SDS011;31340;51.402;0.016;2023-07-20T00:49:09;4.38;;;1.85;;
44774;SDS011;31340;51.402;0.016;2023-07-20T00:51:37;2.70;;;1.77;;
44774;SDS011;31340;51.402;0.016;2023-07-20T00:54:05;5.28;;;1.85;;
44774;SDS011;31340;51.402;0.016;2023-07-20T00:56:35;3.30;;;1.60;;
44774;SDS011;31340;51.402;0.016;2023-07-20T00:59:05;2.63;;;1.63;;
44774;SDS011;31340;51.402;0.016;2023-07-20T01:01:34;4.10;;;1.70;;
44774;SDS011;31340;51.402;0.016;2023-07-20T01:04:03;3.13;;;1.80;;
44774;SDS011;31340;51.402;0.016;2023-07-20T01:14:19;5.85;;;1.92;;
44774;SDS011;31340;51.402;0.016;2023-07-20T01:16:47;5.10;;;1.90;;
44774;SDS011;31340;51.402;0.016;2023-07-20T01:19:17;4.75;;;2.53;;
44774;SDS011;31340;51.402;0.016;2023-07-20T01:22:06;3.10;;;1.45;;
44774;SDS011;31340;51.402;0.016;2023-07-20T01:25:07;7.10;;;2.60;;
44774;SDS011;31340;51.402;0.016;2023-07-20T01:33:13;3.63;;;2.13;;
44774;SDS011;31340;51.402;0.016;2023-07-20T01:35:45;3.38;;;2.00;;
44774;SDS011;31340;51.402;0.016;2023-07-20T01:38:20;2.00;;;1.60;;
44774;SDS011;31340;51.402;0.016;2023-07-20T01:40:49;3.78;;;2.17;;
44774;SDS011;31340;51.402;0.016;2023-07-20T01:43:18;3.67;;;2.00;;
44774;SDS011;31340;51.402;0.016;2023-07-20T01:45:46;3.03;;;1.75;;
44774;SDS011;31340;51.402;0.016;2023-07-20T01:48:14;2.47;;;1.73;;
44774;SDS011;31340;51.402;0.016;2023-07-20T01:50:42;4.13;;;2.05;;
44774;SDS011;31340;51.402;0.016;2023-07-20T01:53:10;3.92;;;1.98;;
44774;SDS011;31340;51.402;0.016;2023-07-20T01:55:38;6.07;;;2.13;;
44774;SDS011;31340;51.402;0.016;2023-07-20T01:58:06;3.33;;;1.67;;
44774;SDS011;31340;51.402;0.016;2023-07-20T02:00:36;4.25;;;1.98;;
44774;SDS011;31340;51.402;0.016;2023-07-20T02:03:04;5.35;;;1.90;;
44774;SDS011;31340;51.402;0.016;2023-07-20T02:05:32;4.70;;;2.40;;
44774;SDS011;31340;51.402;0.016;2023-07-20T02:08:00;4.20;;;1.80;;
44774;SDS011;31340;51.402;0.016;2023-07-20T02:10:27;3.30;;;1.58;;
44774;SDS011;31340;51.402;0.016;2023-07-20T02:12:55;3.05;;;1.90;;
44774;SDS011;31340;51.402;0.016;2023-07-20T02:15:23;4.13;;;1.83;;
44774;SDS011;31340;51.402;0.016;2023-07-20T02:17:51;3.95;;;1.90;;
44774;SDS011;31340;51.402;0.016;2023-07-20T02:20:19;4.03;;;2.15;;
44774;SDS011;31340;51.402;0.016;2023-07-20T02:22:47;3.35;;;2.03;;
44774;SDS011;31340;51.402;0.016;2023-07-20T02:25:14;3.25;;;1.80;;
44774;SDS011;31340;51.402;0.016;2023-07-20T02:27:43;4.28;;;1.75;;
44774;SDS011;31340;51.402;0.016;2023-07-20T02:30:11;3.22;;;2.10;;
44774;SDS011;31340;51.402;0.016;2023-07-20T02:32:39;4.22;;;1.80;;
44774;SDS011;31340;51.402;0.016;2023-07-20T02:35:07;2.92;;;1.90;;
44774;SDS011;31340;51.402;0.016;2023-07-20T02:37:35;5.07;;;2.10;;
44774;SDS011;31340;51.402;0.016;2023-07-20T02:40:04;5.50;;;2.25;;
44774;SDS011;31340;51.402;0.016;2023-07-20T02:42:34;2.60;;;1.70;;
44774;SDS011;31340;51.402;0.016;2023-07-20T02:45:02;2.67;;;1.95;;
44774;SDS011;31340;51.402;0.016;2023-07-20T02:47:32;4.55;;;2.78;;
44774;SDS011;31340;51.402;0.016;2023-07-20T02:50:00;3.05;;;1.90;;
44774;SDS011;31340;51.402;0.016;2023-07-20T02:52:29;6.93;;;2.10;;
44774;SDS011;31340;51.402;0.016;2023-07-20T02:54:57;2.67;;;1.77;;
44774;SDS011;31340;51.402;0.016;2023-07-20T02:57:24;3.15;;;2.00;;
44774;SDS011;31340;51.402;0.016;2023-07-20T02:59:52;1.92;;;1.70;;
44774;SDS011;31340;51.402;0.016;2023-07-20T03:02:21;2.55;;;1.90;;
44774;SDS011;31340;51.402;0.016;2023-07-20T03:04:48;2.88;;;1.77;;
44774;SDS011;31340;51.402;0.016;2023-07-20T03:07:16;2.80;;;2.10;;
44774;SDS011;31340;51.402;0.016;2023-07-20T03:12:14;3.28;;;2.15;;
44774;SDS011;31340;51.402;0.016;2023-07-20T03:14:43;3.35;;;1.90;;
44774;SDS011;31340;51.402;0.016;2023-07-20T03:17:10;4.53;;;2.20;;
44774;SDS011;31340;51.402;0.016;2023-07-20T03:19:39;5.43;;;1.77;;
44774;SDS011;31340;51.402;0.016;2023-07-20T03:22:07;2.83;;;1.90;;
44774;SDS011;31340;51.402;0.016;2023-07-20T03:24:35;4.28;;;2.17;;
44774;SDS011;31340;51.402;0.016;2023-07-20T03:27:03;2.95;;;1.95;;
44774;SDS011;31340;51.402;0.016;2023-07-20T03:29:32;4.05;;;1.80;;
44774;SDS011;31340;51.402;0.016;2023-07-20T03:32:00;3.95;;;2.00;;
44774;SDS011;31340;51.402;0.016;2023-07-20T03:34:28;2.88;;;2.10;;
44774;SDS011;31340;51.402;0.016;2023-07-20T03:36:56;6.10;;;2.20;;
44774;SDS011;31340;51.402;0.016;2023-07-20T03:39:24;2.92;;;1.70;;
44774;SDS011;31340;51.402;0.016;2023-07-20T03:41:51;4.72;;;2.22;;
44774;SDS011;31340;51.402;0.016;2023-07-20T03:44:19;2.30;;;1.98;;
44774;SDS011;31340;51.402;0.016;2023-07-20T03:46:47;2.85;;;2.05;;
44774;SDS011;31340;51.402;0.016;2023-07-20T03:49:15;4.15;;;2.17;;
44774;SDS011;31340;51.402;0.016;2023-07-20T03:51:43;4.35;;;2.00;;
44774;SDS011;31340;51.402;0.016;2023-07-20T03:54:11;2.97;;;1.77;;
44774;SDS011;31340;51.402;0.016;2023-07-20T03:56:38;3.45;;;2.00;;
44774;SDS011;31340;51.402;0.016;2023-07-20T03:59:06;4.05;;;2.00;;
44774;SDS011;31340;51.402;0.016;2023-07-20T04:01:34;5.13;;;2.10;;
44774;SDS011;31340;51.402;0.016;2023-07-20T04:04:06;4.03;;;2.05;;
44774;SDS011;31340;51.402;0.016;2023-07-20T04:06:35;5.25;;;2.25;;
44774;SDS011;31340;51.402;0.016;2023-07-20T04:09:03;7.20;;;2.47;;
44774;SDS011;31340;51.402;0.016;2023-07-20T04:11:34;5.32;;;2.40;;
44774;SDS011;31340;51.402;0.016;2023-07-20T04:14:02;4.28;;;2.00;;
44774;SDS011;31340;51.402;0.016;2023-07-20T04:16:29;2.65;;;2.05;;
44774;SDS011;31340;51.402;0.016;2023-07-20T04:18:57;3.60;;;2.47;;
44774;SDS011;31340;51.402;0.016;2023-07-20T04:21:26;1.95;;;1.60;;
44774;SDS011;31340;51.402;0.016;2023-07-20T04:23:55;4.90;;;2.10;;
44774;SDS011;31340;51.402;0.016;2023-07-20T04:26:23;4.10;;;2.42;;
44774;SDS011;31340;51.402;0.016;2023-07-20T04:28:52;2.75;;;2.10;;
44774;SDS011;31340;51.402;0.016;2023-07-20T04:31:33;3.28;;;2.00;;
44774;SDS011;31340;51.402;0.016;2023-07-20T04:34:02;5.57;;;2.03;;
44774;SDS011;31340;51.402;0.016;2023-07-20T04:36:32;3.42;;;2.00;;
44774;SDS011;31340;51.402;0.016;2023-07-20T04:39:00;5.50;;;3.08;;
44774;SDS011;31340;51.402;0.016;2023-07-20T04:41:34;4.50;;;2.30;;
44774;SDS011;31340;51.402;0.016;2023-07-20T04:44:02;2.42;;;2.22;;
44774;SDS011;31340;51.402;0.016;2023-07-20T04:46:30;2.65;;;1.88;;
44774;SDS011;31340;51.402;0.016;2023-07-20T04:49:01;4.05;;;2.22;;
44774;SDS011;31340;51.402;0.016;2023-07-20T04:51:32;6.03;;;2.30;;
44774;SDS011;31340;51.402;0.016;2023-07-20T04:53:59;5.28;;;2.40;;
44774;SDS011;31340;51.402;0.016;2023-07-20T04:56:32;2.97;;;2.38;;
44774;SDS011;31340;51.402;0.016;2023-07-20T04:59:02;5.73;;;2.80;;
44774;SDS011;31340;51.402;0.016;2023-07-20T05:01:29;4.03;;;2.30;;
44774;SDS011;31340;51.402;0.016;2023-07-20T05:03:57;4.25;;;2.30;;
44774;SDS011;31340;51.402;0.016;2023-07-20T05:06:25;3.22;;;2.42;;
44774;SDS011;31340;51.402;0.016;2023-07-20T05:08:53;4.05;;;2.90;;
44774;SDS011;31340;51.402;0.016;2023-07-20T05:11:21;3.47;;;2.40;;
44774;SDS011;31340;51.402;0.016;2023-07-20T05:13:48;4.28;;;2.67;;
44774;SDS011;31340;51.402;0.016;2023-07-20T05:16:16;3.17;;;2.58;;
44774;SDS011;31340;51.402;0.016;2023-07-20T05:18:44;4.20;;;2.92;;
44774;SDS011;31340;51.402;0.016;2023-07-20T05:21:13;3.03;;;2.15;;
44774;SDS011;31340;51.402;0.016;2023-07-20T05:23:41;3.33;;;2.50;;
44774;SDS011;31340;51.402;0.016;2023-07-20T05:26:09;3.45;;;2.65;;
44774;SDS011;31340;51.402;0.016;2023-07-20T05:28:36;4.75;;;2.30;;
44774;SDS011;31340;51.402;0.016;2023-07-20T05:31:04;5.93;;;2.28;;
44774;SDS011;31340;51.402;0.016;2023-07-20T05:33:32;6.85;;;2.55;;
44774;SDS011;31340;51.402;0.016;2023-07-20T05:36:00;4.72;;;3.08;;
44774;SDS011;31340;51.402;0.016;2023-07-20T05:38:28;6.93;;;2.60;;
44774;SDS011;31340;51.402;0.016;2023-07-20T05:40:58;7.93;;;2.40;;
44774;SDS011;31340;51.402;0.016;2023-07-20T05:43:28;5.20;;;2.42;;
44774;SDS011;31340;51.402;0.016;2023-07-20T05:45:56;3.50;;;2.33;;
44774;SDS011;31340;51.402;0.016;2023-07-20T05:48:24;5.28;;;2.10;;
44774;SDS011;31340;51.402;0.016;2023-07-20T05:50:51;5.03;;;2.67;;
44774;SDS011;31340;51.402;0.016;2023-07-20T05:53:19;4.22;;;2.30;;
44774;SDS011;31340;51.402;0.016;2023-07-20T05:55:53;4.43;;;2.30;;
44774;SDS011;31340;51.402;0.016;2023-07-20T05:58:22;5.32;;;2.90;;
44774;SDS011;31340;51.402;0.016;2023-07-20T06:00:50;3.42;;;2.60;;
44774;SDS011;31340;51.402;0.016;2023-07-20T06:03:18;4.65;;;2.90;;
44774;SDS011;31340;51.402;0.016;2023-07-20T06:05:45;3.13;;;2.45;;
44774;SDS011;31340;51.402;0.016;2023-07-20T06:08:13;3.50;;;2.63;;
44774;SDS011;31340;51.402;0.016;2023-07-20T06:10:40;4.22;;;3.00;;
44774;SDS011;31340;51.402;0.016;2023-07-20T06:13:11;3.88;;;2.92;;
44774;SDS011;31340;51.402;0.016;2023-07-20T06:15:39;8.35;;;3.83;;
44774;SDS011;31340;51.402;0.016;2023-07-20T06:18:08;10.68;;;3.50;;
44774;SDS011;31340;51.402;0.016;2023-07-20T06:20:36;5.75;;;2.90;;
44774;SDS011;31340;51.402;0.016;2023-07-20T06:23:03;3.70;;;2.58;;
44774;SDS011;31340;51.402;0.016;2023-07-20T06:25:31;4.35;;;2.63;;
44774;SDS011;31340;51.402;0.016;2023-07-20T06:27:59;4.25;;;2.60;;
44774;SDS011;31340;51.402;0.016;2023-07-20T06:30:26;6.55;;;2.60;;
44774;SDS011;31340;51.402;0.016;2023-07-20T06:32:54;13.75;;;3.35;;
44774;SDS011;31340;51.402;0.016;2023-07-20T06:35:22;4.13;;;2.55;;
44774;SDS011;31340;51.402;0.016;2023-07-20T06:37:49;4.93;;;3.10;;
44774;SDS011;31340;51.402;0.016;2023-07-20T06:40:17;4.47;;;3.10;;
44774;SDS011;31340;51.402;0.016;2023-07-20T06:42:48;6.82;;;3.50;;
44774;SDS011;31340;51.402;0.016;2023-07-20T06:45:19;4.80;;;3.03;;
44774;SDS011;31340;51.402;0.016;2023-07-20T06:47:46;5.95;;;3.00;;
44774;SDS011;31340;51.402;0.016;2023-07-20T06:50:14;6.78;;;2.80;;
44774;SDS011;31340;51.402;0.016;2023-07-20T06:52:44;7.70;;;3.00;;
44774;SDS011;31340;51.402;0.016;2023-07-20T06:55:14;5.47;;;2.72;;
44774;SDS011;31340;51.402;0.016;2023-07-20T06:57:48;4.93;;;2.60;;
44774;SDS011;31340;51.402;0.016;2023-07-20T07:00:15;7.95;;;2.20;;
44774;SDS011;31340;51.402;0.016;2023-07-20T07:02:43;8.20;;;3.30;;
44774;SDS011;31340;51.402;0.016;2023-07-20T07:05:13;6.22;;;2.97;;
44774;SDS011;31340;51.402;0.016;2023-07-20T07:07:46;3.72;;;2.45;;
44774;SDS011;31340;51.402;0.016;2023-07-20T07:10:14;3.88;;;2.55;;
44774;SDS011;31340;51.402;0.016;2023-07-20T07:12:41;4.63;;;2.70;;
44774;SDS011;31340;51.402;0.016;2023-07-20T07:15:09;5.55;;;2.65;;
44774;SDS011;31340;51.402;0.016;2023-07-20T07:17:37;4.78;;;2.63;;
44774;SDS011;31340;51.402;0.016;2023-07-20T07:20:06;5.20;;;3.03;;
44774;SDS011;31340;51.402;0.016;2023-07-20T07:22:37;5.47;;;2.92;;
44774;SDS011;31340;51.402;0.016;2023-07-20T07:25:05;4.75;;;2.83;;
44774;SDS011;31340;51.402;0.016;2023-07-20T07:27:34;4.47;;;2.50;;
44774;SDS011;31340;51.402;0.016;2023-07-20T07:30:03;4.25;;;2.83;;
44774;SDS011;31340;51.402;0.016;2023-07-20T07:32:31;4.03;;;2.30;;
44774;SDS011;31340;51.402;0.016;2023-07-20T07:34:59;5.55;;;2.58;;
44774;SDS011;31340;51.402;0.016;2023-07-20T07:37:27;6.07;;;2.92;;
44774;SDS011;31340;51.402;0.016;2023-07-20T07:39:59;4.90;;;3.17;;
44774;SDS011;31340;51.402;0.016;2023-07-20T07:42:28;5.35;;;2.85;;
44774;SDS011;31340;51.402;0.016;2023-07-20T07:44:56;5.35;;;3.35;;
44774;SDS011;31340;51.402;0.016;2023-07-20T07:47:24;4.22;;;2.95;;
44774;SDS011;31340;51.402;0.016;2023-07-20T07:49:51;9.63;;;3.45;;
44774;SDS011;31340;51.402;0.016;2023-07-20T07:52:19;5.05;;;2.65;;
44774;SDS011;31340;51.402;0.016;2023-07-20T07:54:46;4.75;;;3.00;;
44774;SDS011;31340;51.402;0.016;2023-07-20T07:57:14;10.05;;;2.92;;
44774;SDS011;31340;51.402;0.016;2023-07-20T07:59:41;4.10;;;2.47;;
44774;SDS011;31340;51.402;0.016;2023-07-20T08:02:09;4.55;;;2.78;;
44774;SDS011;31340;51.402;0.016;2023-07-20T08:04:37;5.47;;;2.63;;
44774;SDS011;31340;51.402;0.016;2023-07-20T08:07:06;5.55;;;2.40;;
44774;SDS011;31340;51.402;0.016;2023-07-20T08:09:34;6.70;;;2.97;;
44774;SDS011;31340;51.402;0.016;2023-07-20T08:12:01;7.93;;;2.80;;
44774;SDS011;31340;51.402;0.016;2023-07-20T08:14:30;6.60;;;2.50;;
44774;SDS011;31340;51.402;0.016;2023-07-20T08:16:58;5.47;;;2.50;;
44774;SDS011;31340;51.402;0.016;2023-07-20T08:19:26;4.13;;;2.80;;
44774;SDS011;31340;51.402;0.016;2023-07-20T08:21:55;7.57;;;2.88;;
44774;SDS011;31340;51.402;0.016;2023-07-20T08:24:22;4.82;;;2.72;;
44774;SDS011;31340;51.402;0.016;2023-07-20T08:26:50;7.22;;;2.80;;
44774;SDS011;31340;51.402;0.016;2023-07-20T08:29:18;6.80;;;2.42;;
44774;SDS011;31340;51.402;0.016;2023-07-20T08:31:45;6.28;;;2.20;;
44774;SDS011;31340;51.402;0.016;2023-07-20T08:34:13;6.72;;;2.50;;
44774;SDS011;31340;51.402;0.016;2023-07-20T08:36:57;3.55;;;2.40;;
44774;SDS011;31340;51.402;0.016;2023-07-20T08:39:25;6.07;;;2.47;;
44774;SDS011;31340;51.402;0.016;2023-07-20T08:41:54;4.85;;;2.40;;
44774;SDS011;31340;51.402;0.016;2023-07-20T08:44:25;4.70;;;2.40;;
44774;SDS011;31340;51.402;0.016;2023-07-20T08:46:53;5.45;;;2.40;;
44774;SDS011;31340;51.402;0.016;2023-07-20T08:49:21;5.78;;;1.65;;
44774;SDS011;31340;51.402;0.016;2023-07-20T08:51:49;4.53;;;2.38;;
44774;SDS011;31340;51.402;0.016;2023-07-20T08:54:19;4.60;;;2.40;;
44774;SDS011;31340;51.402;0.016;2023-07-20T08:56:47;3.53;;;2.17;;
44774;SDS011;31340;51.402;0.016;2023-07-20T08:59:16;7.85;;;1.98;;
44774;SDS011;31340;51.402;0.016;2023-07-20T09:01:45;4.10;;;2.05;;
44774;SDS011;31340;51.402;0.016;2023-07-20T09:04:14;3.78;;;2.17;;
44774;SDS011;31340;51.402;0.016;2023-07-20T09:06:43;5.65;;;2.70;;
44774;SDS011;31340;51.402;0.016;2023-07-20T09:09:11;4.90;;;2.88;;
44774;SDS011;31340;51.402;0.016;2023-07-20T09:11:40;5.63;;;2.33;;
44774;SDS011;31340;51.402;0.016;2023-07-20T09:14:09;7.00;;;2.65;;
44774;SDS011;31340;51.402;0.016;2023-07-20T09:16:47;6.78;;;2.75;;
44774;SDS011;31340;51.402;0.016;2023-07-20T09:19:16;4.93;;;2.67;;
44774;SDS011;31340;51.402;0.016;2023-07-20T09:21:45;4.85;;;2.83;;
44774;SDS011;31340;51.402;0.016;2023-07-20T09:24:15;6.77;;;2.30;;
44774;SDS011;31340;51.402;0.016;2023-07-20T09:26:44;4.05;;;2.40;;
44774;SDS011;31340;51.402;0.016;2023-07-20T09:31:59;3.67;;;2.38;;
44774;SDS011;31340;51.402;0.016;2023-07-20T09:34:31;8.30;;;3.10;;
44774;SDS011;31340;51.402;0.016;2023-07-20T09:37:02;7.90;;;3.10;;
44774;SDS011;31340;51.402;0.016;2023-07-20T09:39:32;6.53;;;2.85;;
44774;SDS011;31340;51.402;0.016;2023-07-20T09:42:00;10.80;;;3.67;;
44774;SDS011;31340;51.402;0.016;2023-07-20T09:44:35;10.63;;;4.28;;
44774;SDS011;31340;51.402;0.016;2023-07-20T09:47:05;4.70;;;2.80;;
44774;SDS011;31340;51.402;0.016;2023-07-20T09:49:38;6.15;;;3.00;;
44774;SDS011;31340;51.402;0.016;2023-07-20T09:52:10;4.75;;;2.75;;
44774;SDS011;31340;51.402;0.016;2023-07-20T09:54:38;7.00;;;3.05;;
44774;SDS011;31340;51.402;0.016;2023-07-20T09:57:07;7.20;;;2.30;;
44774;SDS011;31340;51.402;0.016;2023-07-20T09:59:36;5.40;;;2.38;;
44774;SDS011;31340;51.402;0.016;2023-07-20T10:02:05;4.55;;;2.40;;
44774;SDS011;31340;51.402;0.016;2023-07-20T10:04:41;7.53;;;2.47;;
44774;SDS011;31340;51.402;0.016;2023-07-20T10:07:10;8.63;;;2.30;;
44774;SDS011;31340;51.402;0.016;2023-07-20T10:09:39;2.75;;;2.30;;
44774;SDS011;31340;51.402;0.016;2023-07-20T10:12:08;3.47;;;1.92;;
44774;SDS011;31340;51.402;0.016;2023-07-20T10:14:44;2.92;;;1.80;;
44774;SDS011;31340;51.402;0.016;2023-07-20T10:17:21;7.28;;;2.08;;
44774;SDS011;31340;51.402;0.016;2023-07-20T10:19:54;4.60;;;2.83;;
44774;SDS011;31340;51.402;0.016;2023-07-20T10:22:25;5.63;;;2.55;;
44774;SDS011;31340;51.402;0.016;2023-07-20T10:24:53;4.35;;;2.30;;
44774;SDS011;31340;51.402;0.016;2023-07-20T10:27:21;4.60;;;2.30;;
44774;SDS011;31340;51.402;0.016;2023-07-20T10:29:49;3.63;;;1.77;;
44774;SDS011;31340;51.402;0.016;2023-07-20T10:32:18;6.45;;;1.85;;
44774;SDS011;31340;51.402;0.016;2023-07-20T10:34:52;2.30;;;1.27;;
44774;SDS011;31340;51.402;0.016;2023-07-20T10:43:06;5.05;;;1.30;;
44774;SDS011;31340;51.402;0.016;2023-07-20T10:48:06;5.72;;;1.35;;
44774;SDS011;31340;51.402;0.016;2023-07-20T10:50:42;2.15;;;1.38;;
44774;SDS011;31340;51.402;0.016;2023-07-20T10:53:10;6.00;;;1.40;;
44774;SDS011;31340;51.402;0.016;2023-07-20T10:55:39;3.22;;;1.50;;
44774;SDS011;31340;51.402;0.016;2023-07-20T10:58:08;2.00;;;1.20;;
44774;SDS011;31340;51.402;0.016;2023-07-20T11:01:00;3.50;;;1.33;;
44774;SDS011;31340;51.402;0.016;2023-07-20T11:03:31;1.98;;;1.52;;
44774;SDS011;31340;51.402;0.016;2023-07-20T11:11:34;2.47;;;1.40;;
44774;SDS011;31340;51.402;0.016;2023-07-20T11:14:04;2.40;;;1.10;;
44774;SDS011;31340;51.402;0.016;2023-07-20T11:21:50;5.53;;;1.58;;
44774;SDS011;31340;51.402;0.016;2023-07-20T11:24:30;3.47;;;1.55;;
44774;SDS011;31340;51.402;0.016;2023-07-20T11:26:59;2.47;;;1.40;;
44774;SDS011;31340;51.402;0.016;2023-07-20T11:29:28;2.97;;;1.60;;
44774;SDS011;31340;51.402;0.016;2023-07-20T11:32:01;2.20;;;1.20;;
44774;SDS011;31340;51.402;0.016;2023-07-20T11:34:32;3.45;;;1.35;;
44774;SDS011;31340;51.402;0.016;2023-07-20T11:37:01;4.00;;;1.38;;
44774;SDS011;31340;51.402;0.016;2023-07-20T11:39:33;1.77;;;1.27;;
44774;SDS011;31340;51.402;0.016;2023-07-20T11:42:01;3.60;;;1.40;;
44774;SDS011;31340;51.402;0.016;2023-07-20T11:44:29;12.77;;;3.22;;
44774;SDS011;31340;51.402;0.016;2023-07-20T11:47:04;3.70;;;1.63;;
44774;SDS011;31340;51.402;0.016;2023-07-20T11:49:36;1.67;;;1.40;;
44774;SDS011;31340;51.402;0.016;2023-07-20T11:52:05;3.70;;;1.23;;
44774;SDS011;31340;51.402;0.016;2023-07-20T11:54:37;1.90;;;1.38;;
44774;SDS011;31340;51.402;0.016;2023-07-20T11:57:07;2.77;;;1.60;;
44774;SDS011;31340;51.402;0.016;2023-07-20T11:59:55;2.15;;;1.48;;
44774;SDS011;31340;51.402;0.016;2023-07-20T12:02:26;2.33;;;1.33;;
44774;SDS011;31340;51.402;0.016;2023-07-20T12:04:55;3.03;;;1.42;;
44774;SDS011;31340;51.402;0.016;2023-07-20T12:07:25;2.30;;;1.30;;
44774;SDS011;31340;51.402;0.016;2023-07-20T12:12:40;3.08;;;1.58;;
44774;SDS011;31340;51.402;0.016;2023-07-20T12:17:45;2.40;;;1.65;;
44774;SDS011;31340;51.402;0.016;2023-07-20T12:20:24;1.70;;;1.13;;
44774;SDS011;31340;51.402;0.016;2023-07-20T12:22:55;2.30;;;1.33;;
44774;SDS011;31340;51.402;0.016;2023-07-20T12:28:10;3.00;;;1.33;;
44774;SDS011;31340;51.402;0.016;2023-07-20T12:30:45;3.25;;;1.30;;
44774;SDS011;31340;51.402;0.016;2023-07-20T12:33:14;2.38;;;1.55;;
44774;SDS011;31340;51.402;0.016;2023-07-20T12:35:43;2.78;;;1.60;;
44774;SDS011;31340;51.402;0.016;2023-07-20T12:38:11;4.22;;;1.30;;
44774;SDS011;31340;51.402;0.016;2023-07-20T12:40:39;3.70;;;1.33;;
44774;SDS011;31340;51.402;0.016;2023-07-20T12:43:07;1.60;;;1.40;;
44774;SDS011;31340;51.402;0.016;2023-07-20T12:45:35;2.85;;;1.50;;
44774;SDS011;31340;51.402;0.016;2023-07-20T12:48:03;1.95;;;1.45;;
44774;SDS011;31340;51.402;0.016;2023-07-20T12:50:31;2.42;;;1.45;;
44774;SDS011;31340;51.402;0.016;2023-07-20T12:52:59;2.00;;;1.27;;
44774;SDS011;31340;51.402;0.016;2023-07-20T12:55:28;1.98;;;1.40;;
44774;SDS011;31340;51.402;0.016;2023-07-20T12:57:56;1.50;;;1.30;;
44774;SDS011;31340;51.402;0.016;2023-07-20T13:00:24;2.97;;;1.30;;
44774;SDS011;31340;51.402;0.016;2023-07-20T13:02:51;1.55;;;1.45;;
44774;SDS011;31340;51.402;0.016;2023-07-20T13:05:35;2.30;;;1.45;;
44774;SDS011;31340;51.402;0.016;2023-07-20T13:08:06;4.13;;;1.40;;
44774;SDS011;31340;51.402;0.016;2023-07-20T13:10:37;2.90;;;1.80;;
44774;SDS011;31340;51.402;0.016;2023-07-20T13:13:08;3.15;;;1.38;;
44774;SDS011;31340;51.402;0.016;2023-07-20T13:15:43;2.45;;;1.40;;
44774;SDS011;31340;51.402;0.016;2023-07-20T13:18:12;5.50;;;1.50;;
44774;SDS011;31340;51.402;0.016;2023-07-20T13:20:40;2.58;;;1.30;;
44774;SDS011;31340;51.402;0.016;2023-07-20T13:23:09;2.58;;;1.40;;
44774;SDS011;31340;51.402;0.016;2023-07-20T13:25:36;2.40;;;1.63;;
44774;SDS011;31340;51.402;0.016;2023-07-20T13:28:05;3.17;;;1.50;;
44774;SDS011;31340;51.402;0.016;2023-07-20T13:30:32;2.42;;;1.38;;
44774;SDS011;31340;51.402;0.016;2023-07-20T13:33:00;3.65;;;1.50;;
44774;SDS011;31340;51.402;0.016;2023-07-20T13:35:33;3.33;;;1.75;;
44774;SDS011;31340;51.402;0.016;2023-07-20T13:38:04;2.58;;;1.67;;
44774;SDS011;31340;51.402;0.016;2023-07-20T13:40:32;3.53;;;1.60;;
44774;SDS011;31340;51.402;0.016;2023-07-20T13:42:59;2.60;;;1.45;;
44774;SDS011;31340;51.402;0.016;2023-07-20T13:45:27;2.70;;;1.63;;
44774;SDS011;31340;51.402;0.016;2023-07-20T13:47:55;2.92;;;1.50;;
44774;SDS011;31340;51.402;0.016;2023-07-20T13:50:22;2.67;;;1.38;;
44774;SDS011;31340;51.402;0.016;2023-07-20T13:52:53;4.13;;;1.45;;
44774;SDS011;31340;51.402;0.016;2023-07-20T13:55:40;3.58;;;1.40;;
44774;SDS011;31340;51.402;0.016;2023-07-20T13:58:11;2.47;;;1.27;;
44774;SDS011;31340;51.402;0.016;2023-07-20T14:00:40;1.40;;;1.05;;
44774;SDS011;31340;51.402;0.016;2023-07-20T14:03:07;1.30;;;1.20;;
44774;SDS011;31340;51.402;0.016;2023-07-20T14:05:39;2.22;;;1.40;;
44774;SDS011;31340;51.402;0.016;2023-07-20T14:08:10;2.22;;;1.45;;
44774;SDS011;31340;51.402;0.016;2023-07-20T14:10:37;3.05;;;1.70;;
44774;SDS011;31340;51.402;0.016;2023-07-20T14:13:08;2.08;;;1.15;;
44774;SDS011;31340;51.402;0.016;2023-07-20T14:15:36;1.75;;;1.30;;
44774;SDS011;31340;51.402;0.016;2023-07-20T14:18:06;3.55;;;1.58;;
44774;SDS011;31340;51.402;0.016;2023-07-20T14:20:33;3.92;;;1.20;;
44774;SDS011;31340;51.402;0.016;2023-07-20T14:23:05;2.72;;;1.45;;
44774;SDS011;31340;51.402;0.016;2023-07-20T14:25:33;3.17;;;1.42;;
44774;SDS011;31340;51.402;0.016;2023-07-20T14:28:04;2.00;;;1.30;;
44774;SDS011;31340;51.402;0.016;2023-07-20T14:30:31;2.58;;;1.33;;
44774;SDS011;31340;51.402;0.016;2023-07-20T14:32:59;3.75;;;1.55;;
44774;SDS011;31340;51.402;0.016;2023-07-20T14:35:27;6.78;;;1.60;;
44774;SDS011;31340;51.402;0.016;2023-07-20T14:37:54;3.83;;;1.25;;
44774;SDS011;31340;51.402;0.016;2023-07-20T14:40:22;3.08;;;1.30;;
44774;SDS011;31340;51.402;0.016;2023-07-20T14:42:50;4.35;;;1.70;;
44774;SDS011;31340;51.402;0.016;2023-07-20T14:45:19;5.32;;;1.40;;
44774;SDS011;31340;51.402;0.016;2023-07-20T14:47:46;2.13;;;1.23;;
44774;SDS011;31340;51.402;0.016;2023-07-20T14:50:21;4.13;;;1.77;;
44774;SDS011;31340;51.402;0.016;2023-07-20T14:52:50;10.50;;;1.98;;
44774;SDS011;31340;51.402;0.016;2023-07-20T14:55:18;4.40;;;1.60;;
44774;SDS011;31340;51.402;0.016;2023-07-20T14:57:45;3.63;;;1.65;;
44774;SDS011;31340;51.402;0.016;2023-07-20T15:00:15;20.92;;;3.20;;
44774;SDS011;31340;51.402;0.016;2023-07-20T15:02:43;4.93;;;1.65;;
44774;SDS011;31340;51.402;0.016;2023-07-20T15:05:11;6.28;;;2.40;;
44774;SDS011;31340;51.402;0.016;2023-07-20T15:07:39;3.85;;;1.83;;
44774;SDS011;31340;51.402;0.016;2023-07-20T15:10:06;3.78;;;1.52;;
44774;SDS011;31340;51.402;0.016;2023-07-20T15:12:34;3.53;;;1.27;;
44774;SDS011;31340;51.402;0.016;2023-07-20T15:15:11;3.30;;;1.67;;
44774;SDS011;31340;51.402;0.016;2023-07-20T15:17:41;2.08;;;1.60;;
44774;SDS011;31340;51.402;0.016;2023-07-20T15:20:11;2.65;;;1.65;;
44774;SDS011;31340;51.402;0.016;2023-07-20T15:22:39;4.13;;;2.22;;
44774;SDS011;31340;51.402;0.016;2023-07-20T15:25:09;7.65;;;2.40;;
44774;SDS011;31340;51.402;0.016;2023-07-20T15:27:39;13.60;;;2.70;;
44774;SDS011;31340;51.402;0.016;2023-07-20T15:30:17;3.95;;;1.77;;
44774;SDS011;31340;51.402;0.016;2023-07-20T15:32:48;3.17;;;1.80;;
44774;SDS011;31340;51.402;0.016;2023-07-20T15:35:18;4.00;;;1.65;;
44774;SDS011;31340;51.402;0.016;2023-07-20T15:37:46;3.00;;;1.40;;
44774;SDS011;31340;51.402;0.016;2023-07-20T15:40:13;3.60;;;1.75;;
44774;SDS011;31340;51.402;0.016;2023-07-20T15:42:41;1.80;;;1.33;;
44774;SDS011;31340;51.402;0.016;2023-07-20T15:45:09;3.15;;;1.52;;
44774;SDS011;31340;51.402;0.016;2023-07-20T15:47:37;5.00;;;1.70;;